sensor_id;sensor_type;location;lat;lon;timestamp;P1;durP1;ratioP1;P2;durP2;ratioP2
1414;SDS011;702;49.466;11.086;2023-03-11T00:00:34;1.67;;;1.30;;
1414;SDS011;702;49.466;11.086;2023-03-11T00:03:03;1.60;;;1.50;;
1414;SDS011;702;49.466;11.086;2023-03-11T00:05:34;1.07;;;0.97;;
1414;SDS011;702;49.466;11.086;2023-03-11T00:08:04;1.60;;;1.30;;
1414;SDS011;702;49.466;11.086;2023-03-11T00:10:34;1.10;;;1.00;;
1414;SDS011;702;49.466;11.086;2023-03-11T00:13:05;1.10;;;0.93;;
1414;SDS011;702;49.466;11.086;2023-03-11T00:15:34;1.60;;;1.30;;
1414;SDS011;702;49.466;11.086;2023-03-11T00:18:03;1.30;;;1.20;;
1414;SDS011;702;49.466;11.086;2023-03-11T00:20:32;1.70;;;1.60;;
1414;SDS011;702;49.466;11.086;2023-03-11T00:23:02;1.80;;;1.33;;
1414;SDS011;702;49.466;11.086;2023-03-11T00:25:31;1.13;;;1.03;;
1414;SDS011;702;49.466;11.086;2023-03-11T00:28:01;1.53;;;1.00;;
1414;SDS011;702;49.466;11.086;2023-03-11T00:30:29;1.20;;;1.10;;
1414;SDS011;702;49.466;11.086;2023-03-11T00:32:57;1.43;;;1.23;;
1414;SDS011;702;49.466;11.086;2023-03-11T00:35:25;1.33;;;0.97;;
1414;SDS011;702;49.466;11.086;2023-03-11T00:37:56;1.30;;;1.20;;
1414;SDS011;702;49.466;11.086;2023-03-11T00:40:26;1.23;;;0.90;;
1414;SDS011;702;49.466;11.086;2023-03-11T00:42:56;1.07;;;0.70;;
1414;SDS011;702;49.466;11.086;2023-03-11T00:45:28;1.47;;;1.20;;
1414;SDS011;702;49.466;11.086;2023-03-11T00:47:56;1.03;;;0.83;;
1414;SDS011;702;49.466;11.086;2023-03-11T00:50:25;1.67;;;1.37;;
1414;SDS011;702;49.466;11.086;2023-03-11T00:52:55;1.40;;;1.10;;
1414;SDS011;702;49.466;11.086;2023-03-11T00:55:23;1.30;;;1.20;;
1414;SDS011;702;49.466;11.086;2023-03-11T00:57:52;0.87;;;0.87;;
1414;SDS011;702;49.466;11.086;2023-03-11T01:00:20;1.50;;;1.40;;
1414;SDS011;702;49.466;11.086;2023-03-11T01:02:51;1.30;;;1.20;;
1414;SDS011;702;49.466;11.086;2023-03-11T01:05:21;0.97;;;0.87;;
1414;SDS011;702;49.466;11.086;2023-03-11T01:07:51;0.90;;;0.90;;
1414;SDS011;702;49.466;11.086;2023-03-11T01:10:19;1.40;;;1.30;;
1414;SDS011;702;49.466;11.086;2023-03-11T01:12:46;3.53;;;1.67;;
1414;SDS011;702;49.466;11.086;2023-03-11T01:15:15;1.23;;;1.07;;
1414;SDS011;702;49.466;11.086;2023-03-11T01:17:45;0.87;;;0.87;;
1414;SDS011;702;49.466;11.086;2023-03-11T01:20:14;1.07;;;1.00;;
1414;SDS011;702;49.466;11.086;2023-03-11T01:22:42;1.20;;;1.10;;
1414;SDS011;702;49.466;11.086;2023-03-11T01:25:09;1.13;;;1.03;;
1414;SDS011;702;49.466;11.086;2023-03-11T01:27:39;1.13;;;0.93;;
1414;SDS011;702;49.466;11.086;2023-03-11T01:30:07;0.80;;;0.80;;
1414;SDS011;702;49.466;11.086;2023-03-11T01:32:38;1.30;;;1.20;;
1414;SDS011;702;49.466;11.086;2023-03-11T01:35:06;1.23;;;0.90;;
1414;SDS011;702;49.466;11.086;2023-03-11T01:37:36;1.23;;;1.00;;
1414;SDS011;702;49.466;11.086;2023-03-11T01:40:04;0.70;;;0.70;;
1414;SDS011;702;49.466;11.086;2023-03-11T01:42:34;0.97;;;0.97;;
1414;SDS011;702;49.466;11.086;2023-03-11T01:45:01;0.80;;;0.60;;
1414;SDS011;702;49.466;11.086;2023-03-11T01:47:51;1.13;;;1.03;;
1414;SDS011;702;49.466;11.086;2023-03-11T01:50:18;0.90;;;0.67;;
1414;SDS011;702;49.466;11.086;2023-03-11T01:52:46;1.03;;;0.70;;
1414;SDS011;702;49.466;11.086;2023-03-11T01:55:14;1.00;;;0.97;;
1414;SDS011;702;49.466;11.086;2023-03-11T01:57:44;1.57;;;1.40;;
1414;SDS011;702;49.466;11.086;2023-03-11T02:00:13;2.43;;;1.50;;
1414;SDS011;702;49.466;11.086;2023-03-11T02:02:41;1.30;;;1.07;;
1414;SDS011;702;49.466;11.086;2023-03-11T02:05:11;1.17;;;1.07;;
1414;SDS011;702;49.466;11.086;2023-03-11T02:07:39;1.57;;;1.43;;
1414;SDS011;702;49.466;11.086;2023-03-11T02:10:09;1.40;;;1.30;;
1414;SDS011;702;49.466;11.086;2023-03-11T02:12:39;1.00;;;0.90;;
1414;SDS011;702;49.466;11.086;2023-03-11T02:15:07;1.17;;;1.07;;
1414;SDS011;702;49.466;11.086;2023-03-11T02:17:37;1.10;;;1.00;;
1414;SDS011;702;49.466;11.086;2023-03-11T02:20:12;1.03;;;0.97;;
1414;SDS011;702;49.466;11.086;2023-03-11T02:22:48;1.33;;;1.33;;
1414;SDS011;702;49.466;11.086;2023-03-11T02:25:20;1.80;;;1.70;;
1414;SDS011;702;49.466;11.086;2023-03-11T02:27:59;1.90;;;1.23;;
1414;SDS011;702;49.466;11.086;2023-03-11T02:30:28;2.97;;;1.13;;
1414;SDS011;702;49.466;11.086;2023-03-11T02:32:58;1.63;;;1.53;;
1414;SDS011;702;49.466;11.086;2023-03-11T02:35:27;1.57;;;1.47;;
1414;SDS011;702;49.466;11.086;2023-03-11T02:37:55;1.33;;;1.23;;
1414;SDS011;702;49.466;11.086;2023-03-11T02:40:28;1.93;;;1.67;;
1414;SDS011;702;49.466;11.086;2023-03-11T02:43:09;2.13;;;1.40;;
1414;SDS011;702;49.466;11.086;2023-03-11T02:45:40;1.60;;;1.50;;
1414;SDS011;702;49.466;11.086;2023-03-11T02:48:10;1.53;;;1.40;;
1414;SDS011;702;49.466;11.086;2023-03-11T02:50:39;1.10;;;1.00;;
1414;SDS011;702;49.466;11.086;2023-03-11T02:53:07;1.70;;;1.60;;
1414;SDS011;702;49.466;11.086;2023-03-11T02:55:34;1.80;;;1.20;;
1414;SDS011;702;49.466;11.086;2023-03-11T02:58:01;2.03;;;1.50;;
1414;SDS011;702;49.466;11.086;2023-03-11T03:00:30;1.60;;;1.50;;
1414;SDS011;702;49.466;11.086;2023-03-11T03:02:58;1.53;;;1.37;;
1414;SDS011;702;49.466;11.086;2023-03-11T03:05:26;1.47;;;1.37;;
1414;SDS011;702;49.466;11.086;2023-03-11T03:07:54;1.57;;;1.47;;
1414;SDS011;702;49.466;11.086;2023-03-11T03:10:21;2.20;;;1.43;;
1414;SDS011;702;49.466;11.086;2023-03-11T03:12:48;1.40;;;1.30;;
1414;SDS011;702;49.466;11.086;2023-03-11T03:15:15;2.10;;;1.60;;
1414;SDS011;702;49.466;11.086;2023-03-11T03:17:44;2.00;;;1.50;;
1414;SDS011;702;49.466;11.086;2023-03-11T03:20:12;1.27;;;1.17;;
1414;SDS011;702;49.466;11.086;2023-03-11T03:22:40;2.10;;;2.00;;
1414;SDS011;702;49.466;11.086;2023-03-11T03:25:09;1.70;;;1.50;;
1414;SDS011;702;49.466;11.086;2023-03-11T03:27:36;3.80;;;1.67;;
1414;SDS011;702;49.466;11.086;2023-03-11T03:30:04;1.83;;;1.60;;
1414;SDS011;702;49.466;11.086;2023-03-11T03:32:33;1.40;;;1.10;;
1414;SDS011;702;49.466;11.086;2023-03-11T03:35:02;1.73;;;1.50;;
1414;SDS011;702;49.466;11.086;2023-03-11T03:37:31;2.17;;;1.60;;
1414;SDS011;702;49.466;11.086;2023-03-11T03:40:00;1.40;;;1.30;;
1414;SDS011;702;49.466;11.086;2023-03-11T03:42:32;1.27;;;1.17;;
1414;SDS011;702;49.466;11.086;2023-03-11T03:45:00;1.30;;;1.20;;
1414;SDS011;702;49.466;11.086;2023-03-11T03:47:28;1.43;;;1.23;;
1414;SDS011;702;49.466;11.086;2023-03-11T03:49:57;1.40;;;1.30;;
1414;SDS011;702;49.466;11.086;2023-03-11T03:52:25;1.37;;;1.27;;
1414;SDS011;702;49.466;11.086;2023-03-11T03:54:52;1.93;;;1.50;;
1414;SDS011;702;49.466;11.086;2023-03-11T03:57:20;1.90;;;1.40;;
1414;SDS011;702;49.466;11.086;2023-03-11T03:59:47;1.43;;;1.03;;
1414;SDS011;702;49.466;11.086;2023-03-11T04:02:14;1.63;;;1.30;;
1414;SDS011;702;49.466;11.086;2023-03-11T04:04:41;1.43;;;1.20;;
1414;SDS011;702;49.466;11.086;2023-03-11T04:07:09;1.60;;;1.40;;
1414;SDS011;702;49.466;11.086;2023-03-11T04:09:38;2.03;;;1.20;;
1414;SDS011;702;49.466;11.086;2023-03-11T04:12:07;1.63;;;1.47;;
1414;SDS011;702;49.466;11.086;2023-03-11T04:14:36;2.80;;;1.43;;
1414;SDS011;702;49.466;11.086;2023-03-11T04:17:04;1.17;;;1.07;;
1414;SDS011;702;49.466;11.086;2023-03-11T04:19:31;1.33;;;1.10;;
1414;SDS011;702;49.466;11.086;2023-03-11T04:21:58;1.60;;;1.50;;
1414;SDS011;702;49.466;11.086;2023-03-11T04:24:26;1.47;;;1.20;;
1414;SDS011;702;49.466;11.086;2023-03-11T04:26:54;2.30;;;1.40;;
1414;SDS011;702;49.466;11.086;2023-03-11T04:29:21;2.03;;;1.00;;
1414;SDS011;702;49.466;11.086;2023-03-11T04:31:49;3.20;;;0.90;;
1414;SDS011;702;49.466;11.086;2023-03-11T04:34:16;2.10;;;1.30;;
1414;SDS011;702;49.466;11.086;2023-03-11T04:36:43;1.63;;;1.23;;
1414;SDS011;702;49.466;11.086;2023-03-11T04:39:10;1.43;;;1.10;;
1414;SDS011;702;49.466;11.086;2023-03-11T04:41:38;1.20;;;1.10;;
1414;SDS011;702;49.466;11.086;2023-03-11T04:44:07;1.70;;;1.60;;
1414;SDS011;702;49.466;11.086;2023-03-11T04:46:34;1.70;;;1.27;;
1414;SDS011;702;49.466;11.086;2023-03-11T04:49:01;2.37;;;1.20;;
1414;SDS011;702;49.466;11.086;2023-03-11T04:51:28;1.63;;;1.47;;
1414;SDS011;702;49.466;11.086;2023-03-11T04:53:55;1.43;;;1.30;;
1414;SDS011;702;49.466;11.086;2023-03-11T04:56:23;1.33;;;1.20;;
1414;SDS011;702;49.466;11.086;2023-03-11T04:58:50;0.90;;;0.90;;
1414;SDS011;702;49.466;11.086;2023-03-11T05:01:19;1.20;;;1.10;;
1414;SDS011;702;49.466;11.086;2023-03-11T05:03:46;2.60;;;1.13;;
1414;SDS011;702;49.466;11.086;2023-03-11T05:06:13;2.80;;;1.40;;
1414;SDS011;702;49.466;11.086;2023-03-11T05:08:40;1.53;;;1.30;;
1414;SDS011;702;49.466;11.086;2023-03-11T05:11:08;1.47;;;1.23;;
1414;SDS011;702;49.466;11.086;2023-03-11T05:13:35;1.33;;;1.23;;
1414;SDS011;702;49.466;11.086;2023-03-11T05:16:02;2.70;;;1.83;;
1414;SDS011;702;49.466;11.086;2023-03-11T05:18:32;1.97;;;1.77;;
1414;SDS011;702;49.466;11.086;2023-03-11T05:20:59;2.90;;;1.60;;
1414;SDS011;702;49.466;11.086;2023-03-11T05:23:26;3.37;;;1.37;;
1414;SDS011;702;49.466;11.086;2023-03-11T05:25:53;1.67;;;1.57;;
1414;SDS011;702;49.466;11.086;2023-03-11T05:28:21;4.33;;;1.70;;
1414;SDS011;702;49.466;11.086;2023-03-11T05:30:48;2.30;;;1.70;;
1414;SDS011;702;49.466;11.086;2023-03-11T05:33:15;2.50;;;1.47;;
1414;SDS011;702;49.466;11.086;2023-03-11T05:35:44;1.83;;;1.60;;
1414;SDS011;702;49.466;11.086;2023-03-11T05:38:11;1.83;;;1.70;;
1414;SDS011;702;49.466;11.086;2023-03-11T05:40:38;2.33;;;1.40;;
1414;SDS011;702;49.466;11.086;2023-03-11T05:43:06;3.60;;;1.80;;
1414;SDS011;702;49.466;11.086;2023-03-11T05:45:33;1.77;;;1.63;;
1414;SDS011;702;49.466;11.086;2023-03-11T05:48:01;4.63;;;2.30;;
1414;SDS011;702;49.466;11.086;2023-03-11T05:50:28;2.40;;;1.80;;
1414;SDS011;702;49.466;11.086;2023-03-11T05:52:57;2.03;;;1.73;;
1414;SDS011;702;49.466;11.086;2023-03-11T05:55:24;2.57;;;1.70;;
1414;SDS011;702;49.466;11.086;2023-03-11T05:57:51;3.00;;;2.23;;
1414;SDS011;702;49.466;11.086;2023-03-11T06:00:18;2.53;;;2.00;;
1414;SDS011;702;49.466;11.086;2023-03-11T06:02:47;4.10;;;1.97;;
1414;SDS011;702;49.466;11.086;2023-03-11T06:05:14;2.90;;;1.73;;
1414;SDS011;702;49.466;11.086;2023-03-11T06:07:41;2.30;;;1.83;;
1414;SDS011;702;49.466;11.086;2023-03-11T06:10:11;3.40;;;1.80;;
1414;SDS011;702;49.466;11.086;2023-03-11T06:12:38;2.30;;;2.03;;
1414;SDS011;702;49.466;11.086;2023-03-11T06:15:06;1.73;;;1.63;;
1414;SDS011;702;49.466;11.086;2023-03-11T06:17:34;3.50;;;2.00;;
1414;SDS011;702;49.466;11.086;2023-03-11T06:20:01;4.03;;;2.00;;
1414;SDS011;702;49.466;11.086;2023-03-11T06:22:30;1.87;;;1.77;;
1414;SDS011;702;49.466;11.086;2023-03-11T06:24:57;3.67;;;2.03;;
1414;SDS011;702;49.466;11.086;2023-03-11T06:27:26;2.83;;;1.77;;
1414;SDS011;702;49.466;11.086;2023-03-11T06:29:53;5.40;;;2.40;;
1414;SDS011;702;49.466;11.086;2023-03-11T06:32:20;2.40;;;2.20;;
1414;SDS011;702;49.466;11.086;2023-03-11T06:34:51;2.10;;;1.90;;
1414;SDS011;702;49.466;11.086;2023-03-11T06:37:18;2.87;;;1.93;;
1414;SDS011;702;49.466;11.086;2023-03-11T06:39:50;2.53;;;2.30;;
1414;SDS011;702;49.466;11.086;2023-03-11T06:42:17;4.67;;;1.90;;
1414;SDS011;702;49.466;11.086;2023-03-11T06:44:46;1.60;;;1.50;;
1414;SDS011;702;49.466;11.086;2023-03-11T06:47:14;2.67;;;2.13;;
1414;SDS011;702;49.466;11.086;2023-03-11T06:49:41;2.50;;;2.17;;
1414;SDS011;702;49.466;11.086;2023-03-11T06:52:09;2.70;;;2.10;;
1414;SDS011;702;49.466;11.086;2023-03-11T06:54:36;2.97;;;2.60;;
1414;SDS011;702;49.466;11.086;2023-03-11T06:57:05;2.33;;;2.13;;
1414;SDS011;702;49.466;11.086;2023-03-11T06:59:33;2.57;;;2.23;;
1414;SDS011;702;49.466;11.086;2023-03-11T07:02:02;3.60;;;2.30;;
1414;SDS011;702;49.466;11.086;2023-03-11T07:04:30;4.80;;;2.30;;
1414;SDS011;702;49.466;11.086;2023-03-11T07:06:58;2.43;;;2.20;;
1414;SDS011;702;49.466;11.086;2023-03-11T07:09:26;3.30;;;2.47;;
1414;SDS011;702;49.466;11.086;2023-03-11T07:11:53;3.90;;;2.37;;
1414;SDS011;702;49.466;11.086;2023-03-11T07:14:21;2.60;;;2.10;;
1414;SDS011;702;49.466;11.086;2023-03-11T07:16:48;3.07;;;2.77;;
1414;SDS011;702;49.466;11.086;2023-03-11T07:19:16;4.40;;;2.30;;
1414;SDS011;702;49.466;11.086;2023-03-11T07:21:44;4.27;;;2.77;;
1414;SDS011;702;49.466;11.086;2023-03-11T07:24:11;4.73;;;2.57;;
1414;SDS011;702;49.466;11.086;2023-03-11T07:26:39;5.53;;;2.40;;
1414;SDS011;702;49.466;11.086;2023-03-11T07:29:08;1.93;;;1.83;;
1414;SDS011;702;49.466;11.086;2023-03-11T07:31:35;1.90;;;1.80;;
1414;SDS011;702;49.466;11.086;2023-03-11T07:34:04;3.63;;;2.07;;
1414;SDS011;702;49.466;11.086;2023-03-11T07:36:37;5.93;;;2.07;;
1414;SDS011;702;49.466;11.086;2023-03-11T07:39:07;4.33;;;2.13;;
1414;SDS011;702;49.466;11.086;2023-03-11T07:41:39;3.17;;;2.10;;
1414;SDS011;702;49.466;11.086;2023-03-11T07:44:06;2.57;;;2.37;;
1414;SDS011;702;49.466;11.086;2023-03-11T07:46:37;2.93;;;2.40;;
1414;SDS011;702;49.466;11.086;2023-03-11T07:49:04;2.87;;;1.93;;
1414;SDS011;702;49.466;11.086;2023-03-11T07:51:32;4.63;;;2.30;;
1414;SDS011;702;49.466;11.086;2023-03-11T07:54:03;3.13;;;2.47;;
1414;SDS011;702;49.466;11.086;2023-03-11T07:56:32;3.40;;;2.50;;
1414;SDS011;702;49.466;11.086;2023-03-11T07:59:00;2.87;;;2.50;;
1414;SDS011;702;49.466;11.086;2023-03-11T08:01:30;3.40;;;2.60;;
1414;SDS011;702;49.466;11.086;2023-03-11T08:04:00;7.03;;;2.93;;
1414;SDS011;702;49.466;11.086;2023-03-11T08:06:30;4.13;;;2.40;;
1414;SDS011;702;49.466;11.086;2023-03-11T08:09:00;3.57;;;2.47;;
1414;SDS011;702;49.466;11.086;2023-03-11T08:11:31;4.70;;;2.80;;
1414;SDS011;702;49.466;11.086;2023-03-11T08:13:59;3.17;;;2.10;;
1414;SDS011;702;49.466;11.086;2023-03-11T08:16:26;2.97;;;2.70;;
1414;SDS011;702;49.466;11.086;2023-03-11T08:18:55;9.07;;;5.50;;
1414;SDS011;702;49.466;11.086;2023-03-11T08:21:24;3.63;;;2.00;;
1414;SDS011;702;49.466;11.086;2023-03-11T08:23:55;3.43;;;2.57;;
1414;SDS011;702;49.466;11.086;2023-03-11T08:26:25;3.67;;;2.77;;
1414;SDS011;702;49.466;11.086;2023-03-11T08:28:53;2.40;;;2.20;;
1414;SDS011;702;49.466;11.086;2023-03-11T08:31:21;2.50;;;1.70;;
1414;SDS011;702;49.466;11.086;2023-03-11T08:33:50;3.27;;;1.97;;
1414;SDS011;702;49.466;11.086;2023-03-11T08:36:23;5.80;;;1.77;;
1414;SDS011;702;49.466;11.086;2023-03-11T08:38:50;1.90;;;1.60;;
1414;SDS011;702;49.466;11.086;2023-03-11T08:41:17;2.87;;;1.50;;
1414;SDS011;702;49.466;11.086;2023-03-11T08:43:46;2.87;;;1.77;;
1414;SDS011;702;49.466;11.086;2023-03-11T08:46:18;2.70;;;1.80;;
1414;SDS011;702;49.466;11.086;2023-03-11T08:48:50;2.30;;;1.67;;
1414;SDS011;702;49.466;11.086;2023-03-11T08:51:18;4.70;;;2.50;;
1414;SDS011;702;49.466;11.086;2023-03-11T08:53:46;2.43;;;2.10;;
1414;SDS011;702;49.466;11.086;2023-03-11T08:56:13;2.00;;;1.80;;
1414;SDS011;702;49.466;11.086;2023-03-11T08:58:40;4.40;;;2.07;;
1414;SDS011;702;49.466;11.086;2023-03-11T09:01:11;1.47;;;1.37;;
1414;SDS011;702;49.466;11.086;2023-03-11T09:03:38;2.53;;;1.60;;
1414;SDS011;702;49.466;11.086;2023-03-11T09:06:07;1.80;;;1.70;;
1414;SDS011;702;49.466;11.086;2023-03-11T09:08:38;2.23;;;1.73;;
1414;SDS011;702;49.466;11.086;2023-03-11T09:11:05;1.50;;;1.40;;
1414;SDS011;702;49.466;11.086;2023-03-11T09:13:32;2.50;;;1.60;;
1414;SDS011;702;49.466;11.086;2023-03-11T09:16:00;2.00;;;1.43;;
1414;SDS011;702;49.466;11.086;2023-03-11T09:18:31;3.37;;;1.33;;
1414;SDS011;702;49.466;11.086;2023-03-11T09:20:59;2.73;;;1.63;;
1414;SDS011;702;49.466;11.086;2023-03-11T09:23:26;1.63;;;1.30;;
1414;SDS011;702;49.466;11.086;2023-03-11T09:25:55;3.33;;;1.40;;
1414;SDS011;702;49.466;11.086;2023-03-11T09:28:22;3.37;;;1.50;;
1414;SDS011;702;49.466;11.086;2023-03-11T09:30:49;3.27;;;1.63;;
1414;SDS011;702;49.466;11.086;2023-03-11T09:33:16;2.10;;;1.90;;
1414;SDS011;702;49.466;11.086;2023-03-11T09:35:45;3.90;;;1.30;;
1414;SDS011;702;49.466;11.086;2023-03-11T09:38:12;5.97;;;1.23;;
1414;SDS011;702;49.466;11.086;2023-03-11T09:40:45;3.00;;;1.80;;
1414;SDS011;702;49.466;11.086;2023-03-11T09:43:23;1.53;;;1.20;;
1414;SDS011;702;49.466;11.086;2023-03-11T09:46:05;2.67;;;1.90;;
1414;SDS011;702;49.466;11.086;2023-03-11T09:48:57;1.80;;;1.70;;
1414;SDS011;702;49.466;11.086;2023-03-11T09:51:36;3.40;;;2.47;;
1414;SDS011;702;49.466;11.086;2023-03-11T09:54:09;3.57;;;2.70;;
1414;SDS011;702;49.466;11.086;2023-03-11T09:56:38;3.70;;;2.60;;
1414;SDS011;702;49.466;11.086;2023-03-11T09:59:08;2.43;;;1.40;;
1414;SDS011;702;49.466;11.086;2023-03-11T10:01:43;2.53;;;1.70;;
1414;SDS011;702;49.466;11.086;2023-03-11T10:04:13;1.50;;;1.40;;
1414;SDS011;702;49.466;11.086;2023-03-11T10:06:46;3.20;;;1.17;;
1414;SDS011;702;49.466;11.086;2023-03-11T10:09:24;2.30;;;1.37;;
1414;SDS011;702;49.466;11.086;2023-03-11T10:12:01;2.20;;;1.73;;
1414;SDS011;702;49.466;11.086;2023-03-11T10:14:43;2.30;;;2.00;;
1414;SDS011;702;49.466;11.086;2023-03-11T10:17:31;3.00;;;2.60;;
1414;SDS011;702;49.466;11.086;2023-03-11T10:20:20;2.10;;;1.70;;
1414;SDS011;702;49.466;11.086;2023-03-11T10:22:57;5.13;;;2.43;;
1414;SDS011;702;49.466;11.086;2023-03-11T10:25:46;2.60;;;2.33;;
1414;SDS011;702;49.466;11.086;2023-03-11T10:28:23;3.00;;;2.43;;
1414;SDS011;702;49.466;11.086;2023-03-11T10:31:00;2.47;;;2.17;;
1414;SDS011;702;49.466;11.086;2023-03-11T10:33:35;2.00;;;1.80;;
1414;SDS011;702;49.466;11.086;2023-03-11T10:36:09;6.73;;;2.90;;
1414;SDS011;702;49.466;11.086;2023-03-11T10:38:45;2.73;;;2.47;;
1414;SDS011;702;49.466;11.086;2023-03-11T10:41:16;3.10;;;2.10;;
1414;SDS011;702;49.466;11.086;2023-03-11T10:43:49;3.67;;;2.00;;
1414;SDS011;702;49.466;11.086;2023-03-11T10:46:23;2.30;;;2.03;;
1414;SDS011;702;49.466;11.086;2023-03-11T10:48:52;2.60;;;1.80;;
1414;SDS011;702;49.466;11.086;2023-03-11T10:51:20;3.30;;;3.00;;
1414;SDS011;702;49.466;11.086;2023-03-11T10:53:55;2.80;;;2.00;;
1414;SDS011;702;49.466;11.086;2023-03-11T10:56:29;3.40;;;1.70;;
1414;SDS011;702;49.466;11.086;2023-03-11T10:58:59;3.43;;;2.37;;
1414;SDS011;702;49.466;11.086;2023-03-11T11:01:28;5.53;;;2.93;;
1414;SDS011;702;49.466;11.086;2023-03-11T11:03:56;4.83;;;2.10;;
1414;SDS011;702;49.466;11.086;2023-03-11T11:06:26;2.47;;;1.73;;
1414;SDS011;702;49.466;11.086;2023-03-11T11:09:12;4.47;;;2.23;;
1414;SDS011;702;49.466;11.086;2023-03-11T11:11:42;4.70;;;2.17;;
1414;SDS011;702;49.466;11.086;2023-03-11T11:14:41;2.30;;;1.60;;
1414;SDS011;702;49.466;11.086;2023-03-11T11:17:16;2.40;;;1.50;;
1414;SDS011;702;49.466;11.086;2023-03-11T11:19:48;3.93;;;1.70;;
1414;SDS011;702;49.466;11.086;2023-03-11T11:22:16;1.40;;;1.17;;
1414;SDS011;702;49.466;11.086;2023-03-11T11:24:48;1.70;;;1.20;;
1414;SDS011;702;49.466;11.086;2023-03-11T11:27:18;3.33;;;1.93;;
1414;SDS011;702;49.466;11.086;2023-03-11T11:30:01;2.20;;;1.83;;
1414;SDS011;702;49.466;11.086;2023-03-11T11:32:40;3.30;;;2.23;;
1414;SDS011;702;49.466;11.086;2023-03-11T11:35:09;1.37;;;1.23;;
1414;SDS011;702;49.466;11.086;2023-03-11T11:37:39;2.80;;;1.50;;
1414;SDS011;702;49.466;11.086;2023-03-11T11:40:18;3.40;;;1.90;;
1414;SDS011;702;49.466;11.086;2023-03-11T11:42:52;1.80;;;1.50;;
1414;SDS011;702;49.466;11.086;2023-03-11T11:45:26;2.33;;;1.70;;
1414;SDS011;702;49.466;11.086;2023-03-11T11:48:02;2.63;;;2.20;;
1414;SDS011;702;49.466;11.086;2023-03-11T11:50:39;2.00;;;1.70;;
1414;SDS011;702;49.466;11.086;2023-03-11T11:53:14;3.50;;;1.73;;
1414;SDS011;702;49.466;11.086;2023-03-11T11:55:52;4.30;;;1.70;;
1414;SDS011;702;49.466;11.086;2023-03-11T11:58:19;2.77;;;1.80;;
1414;SDS011;702;49.466;11.086;2023-03-11T12:00:59;1.97;;;1.80;;
1414;SDS011;702;49.466;11.086;2023-03-11T12:06:33;4.67;;;1.57;;
1414;SDS011;702;49.466;11.086;2023-03-11T12:09:11;2.13;;;1.93;;
1414;SDS011;702;49.466;11.086;2023-03-11T12:11:53;2.23;;;1.80;;
1414;SDS011;702;49.466;11.086;2023-03-11T12:14:29;2.10;;;1.90;;
1414;SDS011;702;49.466;11.086;2023-03-11T12:17:01;2.97;;;1.70;;
1414;SDS011;702;49.466;11.086;2023-03-11T12:19:33;1.97;;;1.50;;
1414;SDS011;702;49.466;11.086;2023-03-11T12:22:11;3.60;;;2.10;;
1414;SDS011;702;49.466;11.086;2023-03-11T12:25:24;2.03;;;1.67;;
1414;SDS011;702;49.466;11.086;2023-03-11T12:28:00;3.77;;;2.07;;
1414;SDS011;702;49.466;11.086;2023-03-11T12:30:40;4.20;;;2.30;;
1414;SDS011;702;49.466;11.086;2023-03-11T12:33:13;2.80;;;2.00;;
1414;SDS011;702;49.466;11.086;2023-03-11T12:35:49;1.90;;;1.80;;
1414;SDS011;702;49.466;11.086;2023-03-11T12:38:20;2.30;;;2.10;;
1414;SDS011;702;49.466;11.086;2023-03-11T12:40:59;3.63;;;1.50;;
1414;SDS011;702;49.466;11.086;2023-03-11T12:49:27;2.97;;;1.97;;
1414;SDS011;702;49.466;11.086;2023-03-11T12:52:00;3.47;;;2.33;;
1414;SDS011;702;49.466;11.086;2023-03-11T12:54:31;3.27;;;2.23;;
1414;SDS011;702;49.466;11.086;2023-03-11T12:56:59;3.57;;;2.50;;
1414;SDS011;702;49.466;11.086;2023-03-11T13:02:54;4.93;;;2.60;;
1414;SDS011;702;49.466;11.086;2023-03-11T13:05:49;6.90;;;1.80;;
1414;SDS011;702;49.466;11.086;2023-03-11T13:08:25;1.93;;;1.60;;
1414;SDS011;702;49.466;11.086;2023-03-11T13:10:54;2.53;;;1.60;;
1414;SDS011;702;49.466;11.086;2023-03-11T13:13:31;2.20;;;1.73;;
1414;SDS011;702;49.466;11.086;2023-03-11T13:25:39;2.70;;;1.70;;
1414;SDS011;702;49.466;11.086;2023-03-11T13:28:26;2.40;;;2.00;;
1414;SDS011;702;49.466;11.086;2023-03-11T13:31:26;2.43;;;1.90;;
1414;SDS011;702;49.466;11.086;2023-03-11T13:34:22;2.97;;;2.10;;
1414;SDS011;702;49.466;11.086;2023-03-11T13:37:08;2.73;;;1.70;;
1414;SDS011;702;49.466;11.086;2023-03-11T13:39:52;3.33;;;2.40;;
1414;SDS011;702;49.466;11.086;2023-03-11T13:42:40;1.77;;;1.67;;
1414;SDS011;702;49.466;11.086;2023-03-11T13:45:16;3.40;;;1.83;;
1414;SDS011;702;49.466;11.086;2023-03-11T13:47:54;3.97;;;2.10;;
1414;SDS011;702;49.466;11.086;2023-03-11T13:50:25;2.37;;;1.97;;
1414;SDS011;702;49.466;11.086;2023-03-11T13:52:57;2.63;;;1.50;;
1414;SDS011;702;49.466;11.086;2023-03-11T13:55:27;1.67;;;1.57;;
1414;SDS011;702;49.466;11.086;2023-03-11T13:57:59;1.77;;;1.40;;
1414;SDS011;702;49.466;11.086;2023-03-11T14:00:28;2.50;;;2.30;;
1414;SDS011;702;49.466;11.086;2023-03-11T14:03:00;2.33;;;1.73;;
1414;SDS011;702;49.466;11.086;2023-03-11T14:05:31;1.90;;;1.70;;
1414;SDS011;702;49.466;11.086;2023-03-11T14:08:17;1.87;;;1.60;;
1414;SDS011;702;49.466;11.086;2023-03-11T14:10:51;2.37;;;1.90;;
1414;SDS011;702;49.466;11.086;2023-03-11T14:13:21;2.53;;;1.77;;
1414;SDS011;702;49.466;11.086;2023-03-11T14:15:56;2.07;;;1.70;;
1414;SDS011;702;49.466;11.086;2023-03-11T14:18:36;3.83;;;2.30;;
1414;SDS011;702;49.466;11.086;2023-03-11T14:21:09;2.40;;;1.70;;
1414;SDS011;702;49.466;11.086;2023-03-11T14:23:40;2.10;;;1.60;;
1414;SDS011;702;49.466;11.086;2023-03-11T14:26:11;4.60;;;2.20;;
1414;SDS011;702;49.466;11.086;2023-03-11T14:28:41;5.07;;;2.50;;
1414;SDS011;702;49.466;11.086;2023-03-11T14:31:20;2.93;;;1.97;;
1414;SDS011;702;49.466;11.086;2023-03-11T14:33:59;4.33;;;1.90;;
1414;SDS011;702;49.466;11.086;2023-03-11T14:36:38;3.10;;;2.00;;
1414;SDS011;702;49.466;11.086;2023-03-11T14:39:21;2.87;;;1.93;;
1414;SDS011;702;49.466;11.086;2023-03-11T14:41:55;3.53;;;2.90;;
1414;SDS011;702;49.466;11.086;2023-03-11T14:44:27;2.53;;;1.83;;
1414;SDS011;702;49.466;11.086;2023-03-11T14:47:02;3.57;;;2.23;;
1414;SDS011;702;49.466;11.086;2023-03-11T14:49:36;2.67;;;2.10;;
1414;SDS011;702;49.466;11.086;2023-03-11T14:52:07;4.37;;;1.93;;
1414;SDS011;702;49.466;11.086;2023-03-11T14:54:40;3.57;;;1.90;;
1414;SDS011;702;49.466;11.086;2023-03-11T14:57:14;1.70;;;1.60;;
1414;SDS011;702;49.466;11.086;2023-03-11T14:59:48;1.63;;;1.53;;
1414;SDS011;702;49.466;11.086;2023-03-11T15:02:26;1.87;;;1.73;;
1414;SDS011;702;49.466;11.086;2023-03-11T15:05:08;3.73;;;3.53;;
1414;SDS011;702;49.466;11.086;2023-03-11T15:07:44;2.80;;;2.20;;
1414;SDS011;702;49.466;11.086;2023-03-11T15:10:14;2.30;;;1.87;;
1414;SDS011;702;49.466;11.086;2023-03-11T15:12:41;2.23;;;1.70;;
1414;SDS011;702;49.466;11.086;2023-03-11T15:15:20;1.80;;;1.70;;
1414;SDS011;702;49.466;11.086;2023-03-11T15:17:53;2.23;;;1.80;;
1414;SDS011;702;49.466;11.086;2023-03-11T15:20:23;3.70;;;2.17;;
1414;SDS011;702;49.466;11.086;2023-03-11T15:22:56;4.90;;;2.17;;
1414;SDS011;702;49.466;11.086;2023-03-11T15:25:26;2.77;;;2.50;;
1414;SDS011;702;49.466;11.086;2023-03-11T15:27:56;4.93;;;2.57;;
1414;SDS011;702;49.466;11.086;2023-03-11T15:30:24;3.23;;;2.17;;
1414;SDS011;702;49.466;11.086;2023-03-11T15:32:54;3.90;;;2.77;;
1414;SDS011;702;49.466;11.086;2023-03-11T15:35:24;2.80;;;2.23;;
1414;SDS011;702;49.466;11.086;2023-03-11T15:40:49;3.10;;;2.00;;
1414;SDS011;702;49.466;11.086;2023-03-11T15:43:20;2.47;;;2.20;;
1414;SDS011;702;49.466;11.086;2023-03-11T15:45:53;3.23;;;2.43;;
1414;SDS011;702;49.466;11.086;2023-03-11T15:48:23;2.83;;;2.63;;
1414;SDS011;702;49.466;11.086;2023-03-11T15:50:54;3.10;;;2.70;;
1414;SDS011;702;49.466;11.086;2023-03-11T15:53:23;3.77;;;3.00;;
1414;SDS011;702;49.466;11.086;2023-03-11T15:55:53;4.40;;;3.10;;
1414;SDS011;702;49.466;11.086;2023-03-11T15:58:23;3.47;;;2.20;;
1414;SDS011;702;49.466;11.086;2023-03-11T16:00:53;4.73;;;2.40;;
1414;SDS011;702;49.466;11.086;2023-03-11T16:03:21;2.67;;;2.47;;